Time;durP1;ratioP1;P1;durP2;ratioP2;P2;SDS_P1;SDS_P2;PMS_P1;PMS_P2;Temp;Humidity;BMP_temperature;BMP_pressure;BME280_temperature;BME280_humidity;BME280_pressure;Samples;Min_cycle;Max_cycle;Signal;HPM_P1;HPM_P2
2022/01/21 00:00:31;;;;;;;2.47;2.08;;;;;;;0.32;56.86;102763.84;6219055;23;20015;-78
2022/01/21 00:02:57;;;;;;;8.10;1.25;;;;;;;0.42;57.25;102786.22;6243850;23;20560;-78
2022/01/21 00:05:33;;;;;;;;;;;;;;;;;;;;;
2022/01/21 00:08:08;;;;;;;;;;;;;;;;;;;;;
2022/01/21 00:10:36;;;;;;;3.78;2.25;;;;;;;0.35;58.04;102779.69;6243525;23;20075;-78
2022/01/21 00:13:14;;;;;;;1.35;1.25;;;;;;;0.36;57.40;102781.41;6218126;23;20091;-78
2022/01/21 00:15:40;;;;;;;3.38;2.00;;;;;;;0.30;57.43;102772.06;6217228;23;20024;-79
2022/01/21 00:18:10;;;;;;;1.70;1.35;;;;;;;0.34;58.02;102773.47;6244548;23;20003;-78
2022/01/21 00:32:01;;;;;;;4.22;1.83;;;;;;;0.30;57.56;102792.75;6243909;23;20062;-77
2022/01/21 00:34:39;;;;;;;;;;;;;;;;;;;;;
2022/01/21 00:37:08;;;;;;;2.20;1.27;;;;;;;0.09;58.70;102764.09;6242748;23;20510;-77
2022/01/21 00:39:48;;;;;;;3.35;1.02;;;;;;;0.16;58.13;102767.06;6217188;23;20363;-77
2022/01/21 00:45:13;;;;;;;;;;;;;;;;;;;;;
2022/01/21 00:47:53;;;;;;;1.35;0.80;;;;;;;-0.03;57.83;102735.59;6261274;23;19992;-76
2022/01/21 00:50:44;;;;;;;;;;;;;;;;;;;;;
2022/01/21 00:53:09;;;;;;;0.95;0.90;;;;;;;0.09;57.72;102764.09;6260434;23;19996;-76
2022/01/21 00:55:35;;;;;;;1.85;1.23;;;;;;;0.20;58.62;102776.56;6210256;23;20008;-76
2022/01/21 00:58:00;;;;;;;0.68;0.65;;;;;;;0.10;58.30;102763.13;6251947;23;20398;-75
2022/01/21 01:00:26;;;;;;;1.48;0.70;;;;;;;0.17;58.54;102766.94;6192275;23;20011;-77
2022/01/21 01:02:51;;;;;;;2.05;0.73;;;;;;;0.22;57.82;102768.34;6215480;23;20031;-76
2022/01/21 01:05:17;;;;;;;0.88;0.82;;;;;;;0.15;58.22;102755.47;6216113;23;20029;-77
2022/01/21 01:07:45;;;;;;;2.50;1.25;;;;;;;0.13;59.27;102749.38;6190312;23;20086;-79
2022/01/21 01:21:27;;;;;;;2.03;1.45;;;;;;;0.07;59.23;102757.16;6243316;23;20027;-77
2022/01/21 01:29:21;;;;;;;3.90;1.75;;;;;;;0.10;59.65;102776.59;6200922;23;20072;-77
2022/01/21 01:31:47;;;;;;;3.78;1.98;;;;;;;0.14;59.77;102777.13;6217323;23;20008;-76
2022/01/21 01:34:13;;;;;;;8.18;2.03;;;;;;;0.14;60.33;102769.06;6216484;23;20000;-76
2022/01/21 01:36:42;;;;;;;3.78;1.27;;;;;;;0.04;60.18;102755.59;6245741;23;20004;-76
2022/01/21 01:39:18;;;;;;;2.10;1.40;;;;;;;0.05;60.18;102767.22;6193169;23;20028;-76
2022/01/21 01:41:55;;;;;;;6.43;2.00;;;;;;;0.09;60.31;102766.78;6219331;23;20011;-76
2022/01/21 01:49:52;;;;;;;4.63;1.50;;;;;;;0.01;61.30;102739.72;6244957;23;20099;-76
2022/01/21 01:52:30;;;;;;;;;;;;;;;;;;;;;
2022/01/21 01:55:01;;;;;;;7.25;2.10;;;;;;;0.15;61.74;102765.41;6227373;23;20473;-76
2022/01/21 01:57:29;;;;;;;5.03;1.85;;;;;;;0.03;61.10;102748.53;6247781;23;20082;-76
2022/01/21 01:59:54;;;;;;;2.10;1.75;;;;;;;0.10;60.47;102760.44;6219755;23;20064;-75
2022/01/21 02:02:20;;;;;;;2.00;1.38;;;;;;;0.03;60.71;102751.22;6247712;23;20058;-77
2022/01/21 02:04:49;;;;;;;2.63;1.30;;;;;;;0.05;60.55;102757.28;6245969;23;20000;-80
2022/01/21 02:07:15;;;;;;;7.22;1.90;;;;;;;-0.14;61.32;102730.38;6218400;23;20004;-79
2022/01/21 02:09:52;;;;;;;;;;;;;;;;;;;;;
2022/01/21 02:12:18;;;;;;;2.03;1.90;;;;;;;-0.20;60.93;102738.00;6247162;23;20678;-79
2022/01/21 02:14:49;;;;;;;6.60;1.45;;;;;;;-0.10;61.10;102753.28;6197316;23;20042;-79
2022/01/21 02:22:54;;;;;;;;;;;;;;;;;;;;;
2022/01/21 02:25:30;;;;;;;;;;;;;;;;;;;;;
2022/01/21 02:28:00;;;;;;;3.00;1.10;;;;;;;-0.36;62.52;102710.78;6246958;23;20083;-79
2022/01/21 02:30:58;;;;;;;3.38;2.00;;;;;;;-0.28;61.81;102721.69;6168387;23;20012;-78
2022/01/21 02:33:31;;;;;;;4.07;2.22;;;;;;;-0.18;62.01;102745.91;6223938;23;20023;-78
2022/01/21 02:35:59;;;;;;;5.80;1.38;;;;;;;-0.23;61.84;102742.81;6191978;23;20008;-78
2022/01/21 02:38:25;;;;;;;2.63;0.88;;;;;;;-0.36;62.44;102726.91;6195357;23;20008;-78
2022/01/21 02:40:50;;;;;;;2.47;0.88;;;;;;;-0.23;61.32;102754.41;6190223;23;20083;-78
2022/01/21 02:43:16;;;;;;;1.30;0.90;;;;;;;-0.29;61.19;102744.22;6169062;23;20103;-77
2022/01/21 02:45:45;;;;;;;0.80;0.68;;;;;;;-0.25;61.62;102745.63;6195411;23;20008;-77
2022/01/21 02:48:11;;;;;;;3.90;0.82;;;;;;;-0.41;61.06;102716.56;6219322;23;20036;-77
2022/01/21 02:50:36;;;;;;;4.45;1.13;;;;;;;-0.24;62.12;102747.31;6195636;23;20008;-78
2022/01/21 02:56:10;;;;;;;2.72;1.73;;;;;;;-0.29;62.05;102741.53;6147493;23;20005;-74
2022/01/21 02:58:36;;;;;;;4.30;2.00;;;;;;;-0.16;61.49;102759.22;6215680;23;20012;-74
2022/01/21 03:01:03;;;;;;;1.65;1.42;;;;;;;-0.16;61.84;102748.47;6218734;23;20003;-73
2022/01/21 03:03:28;;;;;;;3.88;1.52;;;;;;;-0.30;62.66;102729.06;6215387;23;20028;-74
2022/01/21 03:05:54;;;;;;;4.60;1.45;;;;;;;-0.18;62.01;102743.22;6213839;23;20059;-74
2022/01/21 03:08:19;;;;;;;2.10;1.20;;;;;;;-0.17;62.28;102736.88;6217692;23;20053;-73
2022/01/21 03:10:45;;;;;;;6.90;2.15;;;;;;;-0.21;62.60;102730.91;6198626;23;20035;-76
2022/01/21 03:13:11;;;;;;;3.63;1.80;;;;;;;-0.17;63.01;102730.66;6216960;23;20004;-72
2022/01/21 03:15:37;;;;;;;5.80;1.67;;;;;;;-0.23;62.52;102735.59;6245039;23;20011;-72
2022/01/21 03:18:06;;;;;;;3.17;1.40;;;;;;;-0.24;62.42;102728.50;6218785;23;20008;-74
2022/01/21 03:20:39;;;;;;;4.40;1.45;;;;;;;-0.37;62.81;102719.81;6218526;23;20004;-75
2022/01/21 03:23:15;;;;;;;;;;;;;;;;;;;;;
2022/01/21 03:26:01;;;;;;;1.27;0.85;;;;;;;-0.32;62.27;102739.09;6191005;23;20862;-73
2022/01/21 03:28:26;;;;;;;2.60;0.85;;;;;;;-0.56;62.17;102716.09;6217879;23;20038;-74
2022/01/21 03:30:55;;;;;;;3.55;0.93;;;;;;;-0.50;61.93;102728.13;6215151;23;20419;-73
2022/01/21 03:33:27;;;;;;;1.25;0.85;;;;;;;-0.51;63.09;102728.28;6191150;23;20460;-74
2022/01/21 03:35:53;;;;;;;2.67;0.70;;;;;;;-0.38;62.32;102761.13;6216117;23;20026;-73
2022/01/21 03:38:24;;;;;;;1.85;0.82;;;;;;;-0.45;62.68;102733.97;6241790;23;20004;-74
2022/01/21 03:40:55;;;;;;;1.63;0.80;;;;;;;-0.41;62.62;102742.59;6242350;23;20058;-74
2022/01/21 03:43:22;;;;;;;4.22;1.27;;;;;;;-0.57;61.96;102725.16;6241710;23;20004;-74
2022/01/21 03:45:52;;;;;;;1.35;1.25;;;;;;;-0.57;63.29;102730.53;6214357;23;20008;-74
2022/01/21 03:48:26;;;;;;;1.23;1.13;;;;;;;-0.56;62.79;102732.22;6216676;23;20367;-74
2022/01/21 03:51:12;;;;;;;4.07;1.70;;;;;;;-0.50;63.40;102741.56;6249199;23;20000;-73
2022/01/21 03:53:39;;;;;;;1.63;1.25;;;;;;;-0.54;62.85;102737.44;6174721;23;20094;-74
2022/01/21 03:56:05;;;;;;;2.33;1.30;;;;;;;-0.61;63.23;102734.47;6214558;23;20010;-74
2022/01/21 03:58:37;;;;;;;2.25;1.50;;;;;;;-0.69;63.15;102715.47;6186647;23;20012;-74
2022/01/21 04:01:03;;;;;;;1.58;1.05;;;;;;;-0.62;63.01;102722.00;6216765;23;20043;-74
2022/01/21 04:03:28;;;;;;;1.90;1.65;;;;;;;-0.67;63.36;102726.97;6162794;23;20012;-73
2022/01/21 04:06:04;;;;;;;2.35;1.02;;;;;;;-0.54;63.13;102741.00;6238133;23;20011;-73
2022/01/21 04:08:29;;;;;;;7.95;2.10;;;;;;;-0.54;64.23;102740.13;6241529;23;20073;-74
2022/01/21 04:10:56;;;;;;;4.18;2.10;;;;;;;-0.65;64.32;102722.28;6242305;23;20008;-74
2022/01/21 04:13:23;;;;;;;3.83;1.35;;;;;;;-0.60;63.97;102730.81;6216214;23;20065;-73
2022/01/21 04:16:04;;;;;;;12.27;1.58;;;;;;;-0.52;63.83;102742.72;6240964;23;20008;-73
2022/01/21 04:18:30;;;;;;;4.20;1.40;;;;;;;-0.57;64.08;102741.28;6241045;23;20504;-73
2022/01/21 04:20:56;;;;;;;1.98;0.93;;;;;;;-0.58;63.80;102744.94;6241724;23;20410;-72
2022/01/21 04:23:25;;;;;;;0.88;0.68;;;;;;;-0.55;63.55;102743.84;6243210;23;20015;-73
2022/01/21 04:25:51;;;;;;;1.27;0.70;;;;;;;-0.59;63.41;102748.63;6188502;23;20019;-73
2022/01/21 04:28:24;;;;;;;0.43;0.43;;;;;;;-0.59;63.43;102745.94;6192579;23;20008;-75
2022/01/21 04:30:50;;;;;;;0.30;0.30;;;;;;;-0.63;63.01;102731.06;6215969;23;20038;-74
2022/01/21 04:33:20;;;;;;;0.28;0.20;;;;;;;-0.61;62.66;102739.84;6216434;23;20040;-73
2022/01/21 04:35:46;;;;;;;0.50;0.50;;;;;;;-0.74;63.16;102715.88;6192658;23;20004;-75
2022/01/21 04:38:17;;;;;;;2.63;0.88;;;;;;;-0.60;62.94;102735.31;6190382;23;20102;-74
2022/01/21 04:40:52;;;;;;;1.40;0.90;;;;;;;-0.57;63.53;102735.91;6213890;23;20019;-74
2022/01/21 04:48:49;;;;;;;4.45;1.63;;;;;;;-0.81;63.17;102743.44;6240692;23;20403;-74
2022/01/21 04:51:18;;;;;;;2.20;2.00;;;;;;;-0.85;63.62;102742.84;6243387;23;20008;-74
2022/01/21 04:53:46;;;;;;;4.20;1.67;;;;;;;-0.91;63.95;102748.75;6192870;23;20613;-74
2022/01/21 04:56:12;;;;;;;5.07;1.63;;;;;;;-0.97;64.71;102738.53;6240988;23;20030;-74
2022/01/21 04:58:40;;;;;;;5.00;1.40;;;;;;;-0.93;64.54;102735.44;6242840;23;20004;-73
2022/01/21 05:01:08;;;;;;;4.28;1.65;;;;;;;-0.96;64.79;102716.06;6238525;23;20374;-73
2022/01/21 05:03:45;;;;;;;3.50;1.55;;;;;;;-0.94;64.58;102723.00;6217260;23;20012;-75
2022/01/21 05:06:10;;;;;;;4.15;2.22;;;;;;;-0.99;65.04;102719.88;6217964;23;20374;-74
2022/01/21 05:11:12;;;;;;;1.50;1.40;;;;;;;-1.00;64.58;102728.91;6254451;23;20054;-75
2022/01/21 05:13:41;;;;;;;3.85;1.42;;;;;;;-0.97;64.95;102728.63;6191629;23;20004;-74
2022/01/21 05:16:29;;;;;;;5.75;2.35;;;;;;;-0.91;65.15;102746.06;6243349;23;20079;-74
2022/01/21 05:19:01;;;;;;;2.15;1.58;;;;;;;-1.00;65.14;102734.28;6196131;23;20461;-74
2022/01/21 05:21:27;;;;;;;3.42;1.35;;;;;;;-0.99;65.19;102727.06;6241955;23;20326;-73
2022/01/21 05:23:53;;;;;;;1.48;1.38;;;;;;;-0.98;64.96;102732.34;6190466;23;20019;-74
2022/01/21 05:26:21;;;;;;;2.90;1.10;;;;;;;-0.95;65.40;102732.06;6242408;23;20058;-74
2022/01/21 05:28:54;;;;;;;2.00;1.20;;;;;;;-0.94;65.30;102728.38;6243031;23;20074;-74
2022/01/21 05:31:19;;;;;;;3.25;1.60;;;;;;;-0.89;64.83;102739.56;6217368;23;20000;-73
2022/01/21 05:33:44;;;;;;;1.52;0.90;;;;;;;-0.80;65.22;102747.84;6191258;23;20016;-75
2022/01/21 05:36:18;;;;;;;5.70;1.00;;;;;;;-0.81;64.96;102751.50;6217301;23;20093;-74
2022/01/21 05:38:43;;;;;;;4.50;1.13;;;;;;;-0.99;65.02;102730.63;6216998;23;20008;-74
2022/01/21 05:41:09;;;;;;;5.85;2.05;;;;;;;-0.94;65.68;102744.47;6195615;23;20368;-75
2022/01/21 05:43:35;;;;;;;4.05;1.77;;;;;;;-0.96;65.69;102741.09;6244124;23;20014;-75
2022/01/21 05:48:47;;;;;;;3.08;1.42;;;;;;;-1.04;65.83;102743.56;6238479;23;20007;-74
2022/01/21 05:51:13;;;;;;;2.45;1.52;;;;;;;-1.02;66.19;102757.75;6205278;23;20011;-74
2022/01/21 05:53:40;;;;;;;1.13;1.02;;;;;;;-1.15;65.36;102741.81;6257447;23;20482;-75
2022/01/21 05:56:12;;;;;;;0.63;0.60;;;;;;;-1.17;65.33;102742.94;6228465;23;20092;-74
2022/01/21 05:58:39;;;;;;;1.58;0.60;;;;;;;-1.18;64.93;102758.22;6253144;23;20004;-75
2022/01/21 06:01:06;;;;;;;0.40;0.40;;;;;;;-1.17;64.99;102764.41;6226740;23;20083;-74
2022/01/21 06:03:40;;;;;;;0.45;0.40;;;;;;;-1.26;65.14;102760.69;6220180;23;20016;-74
2022/01/21 06:06:05;;;;;;;0.45;0.43;;;;;;;-1.29;65.29;102753.72;6240944;23;20079;-74
2022/01/21 06:08:31;;;;;;;1.58;0.43;;;;;;;-1.28;65.11;102766.19;6211489;23;20024;-73
2022/01/21 06:11:06;;;;;;;0.50;0.30;;;;;;;-1.28;65.39;102766.19;6213537;23;20008;-72
2022/01/21 06:13:34;;;;;;;0.40;0.32;;;;;;;-1.27;64.85;102773.25;6215608;23;20011;-72
2022/01/21 06:16:07;;;;;;;1.88;0.47;;;;;;;-1.42;65.40;102750.38;6215084;23;20011;-73
2022/01/21 06:18:32;;;;;;;0.35;0.35;;;;;;;-1.37;64.92;102750.88;6240284;23;20000;-72
2022/01/21 06:20:58;;;;;;;5.60;0.70;;;;;;;-1.37;64.89;102756.25;6214237;23;20012;-73
2022/01/21 06:23:24;;;;;;;1.70;0.98;;;;;;;-1.41;65.09;102752.94;6189798;23;20367;-73
2022/01/21 06:25:58;;;;;;;1.75;1.65;;;;;;;-1.34;65.38;102758.66;6191333;23;20004;-72
2022/01/21 06:28:29;;;;;;;5.28;1.90;;;;;;;-1.45;65.95;102734.56;6219150;23;20510;-72
2022/01/21 06:30:54;;;;;;;5.40;1.20;;;;;;;-1.35;65.10;102751.56;6215986;23;20314;-72
2022/01/21 06:33:25;;;;;;;3.67;1.67;;;;;;;-1.38;65.64;102757.22;6214389;23;20004;-73
2022/01/21 06:35:56;;;;;;;9.80;2.00;;;;;;;-1.44;65.82;102741.63;6216300;23;20474;-73
2022/01/21 06:38:24;;;;;;;3.47;2.10;;;;;;;-1.47;65.27;102748.09;6243363;23;20383;-72
2022/01/21 06:40:50;;;;;;;3.90;2.08;;;;;;;-1.45;66.46;102764.06;6241567;23;20004;-72
2022/01/21 06:43:17;;;;;;;5.20;2.85;;;;;;;-1.43;66.27;102764.78;6215854;23;20008;-71
2022/01/21 06:45:52;;;;;;;1.45;1.35;;;;;;;-1.58;66.63;102745.47;6216079;23;20019;-71
2022/01/21 06:48:18;;;;;;;1.75;1.60;;;;;;;-1.46;66.03;102765.91;6216730;23;20008;-72
2022/01/21 06:50:43;;;;;;;1.67;1.40;;;;;;;-1.47;65.91;102772.25;6243519;23;20486;-72
2022/01/21 06:53:09;;;;;;;2.58;1.63;;;;;;;-1.55;65.90;102752.41;6215803;23;20018;-73
2022/01/21 06:55:37;;;;;;;1.58;1.48;;;;;;;-1.53;66.73;102755.81;6241921;23;20011;-73
2022/01/21 06:58:04;;;;;;;5.15;2.58;;;;;;;-1.50;66.16;102752.88;6242411;23;20035;-73
2022/01/21 07:00:30;;;;;;;2.75;1.77;;;;;;;-1.50;66.99;102752.88;6214249;23;20004;-72
2022/01/21 07:02:56;;;;;;;14.57;3.47;;;;;;;-1.39;67.25;102749.28;6214053;23;20511;-75
2022/01/21 07:05:35;;;;;;;;;;;;;;;;;;;;;
2022/01/21 07:08:03;;;;;;;5.28;1.73;;;;;;;-1.34;66.55;102768.53;6241967;23;20083;-72
2022/01/21 07:10:30;;;;;;;3.00;2.15;;;;;;;-1.39;67.72;102758.19;6216994;23;20320;-73
2022/01/21 07:13:03;;;;;;;6.40;2.08;;;;;;;-1.32;67.50;102780.84;6242132;23;20387;-74
2022/01/21 07:15:28;;;;;;;7.93;2.03;;;;;;;-1.41;67.66;102768.22;6217406;23;20008;-71
2022/01/21 07:18:01;;;;;;;5.72;2.88;;;;;;;-1.49;68.35;102759.94;6244554;23;20015;-72
2022/01/21 07:20:47;;;;;;;8.77;2.35;;;;;;;-1.48;67.83;102764.34;6241426;23;20000;-74
2022/01/21 07:23:12;;;;;;;3.05;2.22;;;;;;;-1.41;67.56;102784.31;6242718;23;20047;-74
2022/01/21 07:25:41;;;;;;;10.00;3.10;;;;;;;-1.50;67.87;102774.38;6235266;23;20299;-74
2022/01/21 07:28:10;;;;;;;3.90;2.78;;;;;;;-1.47;68.05;102776.78;6243045;23;20295;-73
2022/01/21 07:30:45;;;;;;;5.15;2.88;;;;;;;-1.65;68.02;102750.50;6215405;23;20016;-73
2022/01/21 07:33:18;;;;;;;4.07;2.20;;;;;;;-1.65;68.35;102755.88;6217239;23;20074;-73
2022/01/21 07:35:45;;;;;;;6.82;2.72;;;;;;;-1.62;69.03;102777.09;6195247;23;20015;-73
2022/01/21 07:38:14;;;;;;;3.60;2.92;;;;;;;-1.71;69.22;102766.25;6189497;23;20063;-73
2022/01/21 07:40:40;;;;;;;2.42;2.22;;;;;;;-1.77;69.03;102764.94;6216539;23;20015;-73
2022/01/21 07:43:06;;;;;;;5.30;3.22;;;;;;;-1.65;68.95;102793.44;6216048;23;20014;-73
2022/01/21 07:45:43;;;;;;;3.33;2.00;;;;;;;-1.81;68.84;102760.78;6217127;23;20012;-74
2022/01/21 07:48:09;;;;;;;2.88;1.73;;;;;;;-1.74;68.10;102780.75;6215508;23;20130;-74
2022/01/21 07:50:40;;;;;;;3.08;1.40;;;;;;;-1.74;68.06;102783.44;6216302;23;20418;-73
2022/01/21 07:53:14;;;;;;;1.00;1.00;;;;;;;-1.75;68.16;102781.78;6217542;23;20427;-73
2022/01/21 07:55:49;;;;;;;;;;;;;;;;;;;;;
2022/01/21 07:58:35;;;;;;;0.73;0.73;;;;;;;-1.68;68.32;102796.38;6242254;23;20092;-73
2022/01/21 08:01:25;;;;;;;0.40;0.30;;;;;;;-1.76;67.58;102793.47;6215981;23;20099;-73
2022/01/21 08:04:12;;;;;;;0.80;0.80;;;;;;;-1.77;68.19;102786.38;6243228;23;20006;-72
2022/01/21 08:06:48;;;;;;;0.52;0.52;;;;;;;-1.74;67.70;102794.19;6214546;23;20004;-74
2022/01/21 08:09:21;;;;;;;0.55;0.55;;;;;;;-1.72;67.73;102797.59;6191843;23;20043;-74
2022/01/21 08:11:49;;;;;;;1.00;1.00;;;;;;;-1.77;67.82;102778.34;6217878;23;20000;-76
2022/01/21 08:14:20;;;;;;;0.40;0.40;;;;;;;-1.74;67.43;102783.44;6245321;23;20087;-76
2022/01/21 08:16:56;;;;;;;;;;;;;;;;;;;;;
2022/01/21 08:19:21;;;;;;;0.52;0.52;;;;;;;-1.73;67.21;102781.63;6244183;23;20079;-76
2022/01/21 08:24:58;;;;;;;0.73;0.30;;;;;;;-1.63;67.96;102786.09;6113778;23;20017;-74
2022/01/21 08:27:26;;;;;;;0.40;0.38;;;;;;;-1.55;67.52;102790.81;6156069;23;20084;-74
2022/01/21 08:29:52;;;;;;;0.35;0.17;;;;;;;-1.42;67.43;102810.31;6157510;23;20098;-75
2022/01/21 08:32:20;;;;;;;0.10;0.10;;;;;;;-1.42;67.30;102798.72;6182695;23;20304;-75
2022/01/21 08:34:45;;;;;;;0.35;0.32;;;;;;;-1.38;67.56;102805.53;6183110;23;20009;-74
2022/01/21 08:37:11;;;;;;;1.50;0.20;;;;;;;-1.34;66.97;102809.66;6179387;23;20033;-74
2022/01/21 08:39:47;;;;;;;0.40;0.30;;;;;;;-1.21;67.80;102816.66;6181076;23;20008;-75
2022/01/21 08:42:15;;;;;;;1.35;1.25;;;;;;;-1.25;67.29;102806.19;6180922;23;20232;-75
2022/01/21 08:44:51;;;;;;;0.90;0.90;;;;;;;-1.00;68.00;102830.97;6181668;23;20007;-76
2022/01/21 08:48:05;;;;;;;1.90;1.67;;;;;;;-0.89;67.97;102840.81;6181157;23;20381;-75
2022/01/21 08:51:36;;;;;;;;;;;;;;;;;;;;;
2022/01/21 08:53:53;;;;;;;2.05;1.73;;;;;;;-0.80;67.46;102815.00;6157472;23;20005;-78
2022/01/21 08:56:21;;;;;;;5.38;2.97;;;;;;;-0.65;66.98;102835.16;6183329;23;20005;-74
2022/01/21 08:58:48;;;;;;;2.88;2.25;;;;;;;-0.74;67.20;102806.41;6183817;23;20379;-75
2022/01/21 09:01:24;;;;;;;2.50;1.80;;;;;;;-0.60;67.99;102816.81;6180259;23;20005;-76
2022/01/21 09:04:04;;;;;;;;;;;;;;;;;;;;;
2022/01/21 09:06:32;;;;;;;4.43;2.95;;;;;;;-0.51;67.18;102819.66;6183814;23;20065;-77
2022/01/21 09:08:59;;;;;;;4.80;2.70;;;;;;;-0.64;67.14;102793.88;6182385;23;20332;-74
2022/01/21 09:11:30;;;;;;;6.40;3.17;;;;;;;-0.66;68.11;102787.75;6181774;23;20313;-75
2022/01/21 09:14:08;;;;;;;;;;;;;;;;;;;;;
2022/01/21 09:16:38;;;;;;;7.57;2.65;;;;;;;-0.40;67.97;102816.91;6183168;23;20088;-77
2022/01/21 09:19:22;;;;;;;8.60;3.08;;;;;;;-0.35;67.91;102833.50;6157196;23;20012;-77
2022/01/21 09:21:51;;;;;;;2.90;2.70;;;;;;;-0.32;68.13;102819.78;6181788;23;20365;-75
2022/01/21 09:24:19;;;;;;;2.97;2.53;;;;;;;-0.31;69.15;102826.84;6233526;23;20023;-77
2022/01/21 09:26:45;;;;;;;9.23;2.67;;;;;;;-0.37;68.29;102789.72;6218124;23;20022;-77
2022/01/21 09:29:13;;;;;;;2.65;2.45;;;;;;;0.11;69.60;102818.63;6219751;23;20007;-76
2022/01/21 09:31:48;;;;;;;3.92;2.60;;;;;;;1.10;69.99;102824.91;6242359;23;19996;-76
2022/01/21 09:34:29;;;;;;;9.25;3.63;;;;;;;2.12;67.30;102805.22;6243635;23;20000;-76
2022/01/21 09:36:58;;;;;;;11.20;2.40;;;;;;;3.34;65.05;102819.13;6216635;23;19999;-77
2022/01/21 09:39:31;;;;;;;5.70;2.15;;;;;;;4.38;62.59;102839.72;6217589;23;20440;-76
2022/01/21 09:42:16;;;;;;;4.60;2.53;;;;;;;5.18;59.32;102835.53;6216100;23;20000;-76
2022/01/21 09:44:45;;;;;;;3.87;2.57;;;;;;;5.91;57.31;102841.81;6217766;23;20327;-77
2022/01/21 09:48:12;;;;;;;2.53;2.33;;;;;;;6.64;53.98;102815.28;6214542;23;20008;-77
2022/01/21 09:50:47;;;;;;;;;;;;;;;;;;;;;
2022/01/21 09:53:35;;;;;;;8.35;2.45;;;;;;;6.35;50.81;102844.03;6244713;23;20095;-77
2022/01/21 09:56:19;;;;;;;5.88;2.05;;;;;;;5.69;50.45;102827.97;6244382;23;20010;-77
2022/01/21 09:58:47;;;;;;;4.22;2.00;;;;;;;5.25;51.17;102853.66;6216220;23;20035;-75
2022/01/21 10:01:29;;;;;;;5.72;2.30;;;;;;;4.88;52.82;102854.19;6192167;23;20012;-76
2022/01/21 10:03:55;;;;;;;3.95;3.05;;;;;;;4.44;53.11;102832.78;6243745;23;20171;-74
2022/01/21 10:06:29;;;;;;;4.30;3.15;;;;;;;4.29;54.54;102852.41;6217281;23;20004;-77
2022/01/21 10:09:01;;;;;;;7.32;2.50;;;;;;;3.93;54.45;102839.06;6217820;23;20011;-78
2022/01/21 10:11:27;;;;;;;7.60;3.22;;;;;;;3.73;55.56;102834.91;6195892;23;20008;-77
2022/01/21 10:14:10;;;;;;;7.05;3.33;;;;;;;3.66;55.57;102849.09;6246669;23;20082;-76
2022/01/21 10:17:07;;;;;;;;;;;;;;;;;;;;;
2022/01/21 10:19:45;;;;;;;;;;;;;;;;;;;;;
2022/01/21 10:22:18;;;;;;;5.75;3.05;;;;;;;3.36;58.02;102858.53;6246237;23;20622;-76
2022/01/21 10:25:01;;;;;;;6.57;3.00;;;;;;;3.35;58.03;102843.28;6218554;23;20016;-78
2022/01/21 10:27:35;;;;;;;6.60;3.45;;;;;;;3.37;57.94;102845.84;6220941;23;20089;-76
2022/01/21 10:30:01;;;;;;;9.82;3.38;;;;;;;3.26;58.59;102828.88;6194692;23;20031;-75
2022/01/21 10:32:36;;;;;;;8.93;3.10;;;;;;;3.41;58.38;102841.81;6217767;23;20000;-77
2022/01/21 10:35:26;;;;;;;6.60;3.10;;;;;;;3.49;58.43;102839.19;6219929;23;20011;-75
2022/01/21 10:37:55;;;;;;;4.65;3.42;;;;;;;3.70;58.27;102840.66;6216907;23;20004;-74
2022/01/21 10:40:45;;;;;;;;;;;;;;;;;;;;;
2022/01/21 10:43:14;;;;;;;7.20;3.53;;;;;;;3.62;57.77;102830.59;6269825;22;20008;-77
2022/01/21 10:45:56;;;;;;;7.35;3.70;;;;;;;3.54;57.61;102823.28;6265737;23;20000;-76
2022/01/21 10:48:28;;;;;;;3.25;2.95;;;;;;;3.48;58.04;102832.06;6256186;23;20004;-74
2022/01/21 10:51:16;;;;;;;8.57;3.58;;;;;;;3.57;58.29;102839.19;6253702;23;20098;-76
2022/01/21 10:53:46;;;;;;;9.93;3.60;;;;;;;3.43;58.60;102807.31;6224440;23;20529;-76
2022/01/21 10:56:16;;;;;;;5.20;3.13;;;;;;;3.52;59.04;102817.22;6222612;23;20022;-78
2022/01/21 10:59:04;;;;;;;;;;;;;;;;;;;;;
2022/01/21 11:01:32;;;;;;;7.07;2.58;;;;;;;3.64;58.98;102821.31;6250459;23;20439;-78
2022/01/21 11:04:21;;;;;;;;;;;;;;;;;;;;;
2022/01/21 11:06:52;;;;;;;6.28;2.40;;;;;;;3.78;58.73;102790.09;6244884;23;20124;-76
2022/01/21 11:09:29;;;;;;;2.72;2.58;;;;;;;3.95;58.22;102806.41;6218489;23;20014;-76
2022/01/21 11:12:16;;;;;;;10.30;2.83;;;;;;;4.22;58.25;102829.69;6193618;23;20044;-76
2022/01/21 11:14:59;;;;;;;5.45;2.33;;;;;;;4.30;58.09;102821.56;6218628;23;20007;-76
2022/01/21 11:17:27;;;;;;;5.85;2.50;;;;;;;4.50;57.71;102822.13;6218638;23;20012;-75
2022/01/21 11:20:41;;;;;;;2.50;2.33;;;;;;;4.67;57.21;102827.56;6215792;23;20119;-75
2022/01/21 11:23:11;;;;;;;10.77;3.03;;;;;;;4.69;56.76;102820.97;6212415;23;20020;-76
2022/01/21 11:25:56;;;;;;;3.30;1.98;;;;;;;4.68;56.50;102791.31;6244827;23;20035;-77
2022/01/21 11:28:45;;;;;;;6.70;3.20;;;;;;;4.83;56.08;102807.75;6218777;23;20016;-76
2022/01/21 11:34:06;;;;;;;9.93;2.22;;;;;;;4.93;56.26;102811.13;6223453;23;20058;-74
2022/01/21 11:36:39;;;;;;;10.75;2.60;;;;;;;4.90;56.94;102797.91;6217503;23;20329;-76
2022/01/21 11:39:12;;;;;;;4.00;2.42;;;;;;;5.03;55.78;102822.66;6217023;23;20330;-76
2022/01/21 11:41:53;;;;;;;6.55;2.47;;;;;;;5.11;55.89;102818.25;6217713;23;20004;-78
2022/01/21 11:44:28;;;;;;;3.65;2.13;;;;;;;5.10;56.12;102794.88;6215514;23;20039;-76
2022/01/21 11:47:13;;;;;;;;;;;;;;;;;;;;;
2022/01/21 11:49:51;;;;;;;;;;;;;;;;;;;;;
2022/01/21 11:52:23;;;;;;;3.53;2.22;;;;;;;5.82;55.83;102794.81;6246030;23;20084;-76
2022/01/21 11:54:56;;;;;;;7.32;2.60;;;;;;;5.95;55.13;102772.53;6245742;23;20000;-75
2022/01/21 11:57:58;;;;;;;8.43;2.58;;;;;;;6.24;54.57;102787.34;6244098;23;20004;-75
2022/01/21 12:00:53;;;;;;;4.38;2.13;;;;;;;6.51;55.11;102779.69;6210740;23;20637;-74
2022/01/21 12:03:52;;;;;;;;;;;;;;;;;;;;;
2022/01/21 12:06:38;;;;;;;4.28;2.92;;;;;;;6.60;52.84;102786.75;6245633;23;20075;-76
2022/01/21 12:09:08;;;;;;;6.82;3.03;;;;;;;6.33;53.38;102742.78;6218167;23;20054;-78
2022/01/21 12:11:50;;;;;;;;;;;;;;;;;;;;;
2022/01/21 12:18:06;;;;;;;6.43;3.03;;;;;;;6.68;53.24;102783.16;6230551;23;20031;-80
2022/01/21 12:21:04;;;;;;;7.45;2.20;;;;;;;6.71;53.55;102767.28;6239539;23;20071;-78
2022/01/21 12:23:44;;;;;;;3.70;2.85;;;;;;;6.74;53.01;102779.69;6215689;23;20012;-79
2022/01/21 12:26:16;;;;;;;5.22;2.15;;;;;;;6.92;54.08;102773.91;6216358;23;20083;-77
2022/01/21 12:28:47;;;;;;;5.78;1.77;;;;;;;6.97;54.05;102772.34;6243325;23;20012;-78
2022/01/21 12:34:15;;;;;;;4.85;1.85;;;;;;;7.18;53.46;102773.50;6235376;23;20011;-76
2022/01/21 12:36:50;;;;;;;6.97;2.47;;;;;;;7.27;52.46;102768.81;6244933;23;20004;-75
2022/01/21 12:39:41;;;;;;;8.53;2.47;;;;;;;7.41;53.18;102767.97;6244235;23;20007;-76
2022/01/21 12:42:52;;;;;;;;;;;;;;;;;;;;;
2022/01/21 12:45:34;;;;;;;2.42;1.80;;;;;;;7.56;51.61;102761.69;6243925;23;20079;-75
2022/01/21 12:48:55;;;;;;;;;;;;;;;;;;;;;
2022/01/21 12:57:23;;;;;;;;;;;;;;;;;;;;;
2022/01/21 13:00:07;;;;;;;;;;;;;;;;;;;;;
2022/01/21 13:02:33;;;;;;;6.25;3.58;;;;;;;7.41;51.89;102748.09;6220681;23;20502;-74
2022/01/21 13:05:37;;;;;;;;;;;;;;;;;;;;;
2022/01/21 13:08:29;;;;;;;6.32;3.30;;;;;;;7.11;54.31;102735.31;6244321;23;20074;-75
2022/01/21 13:11:23;;;;;;;;;;;;;;;;;;;;;
2022/01/21 13:14:36;;;;;;;;;;;;;;;;;;;;;
2022/01/21 13:17:10;;;;;;;3.40;3.00;;;;;;;6.77;55.14;102744.81;6244634;23;20079;-75
2022/01/21 13:19:53;;;;;;;9.15;3.65;;;;;;;6.72;56.28;102752.69;6218056;23;20016;-74
2022/01/21 13:23:20;;;;;;;;;;;;;;;;;;;;;
2022/01/21 13:25:20;;;;;;;3.65;3.22;;;;;;;6.48;56.19;102718.38;6195250;23;20075;-75
2022/01/21 13:28:05;;;;;;;11.68;4.97;;;;;;;6.52;56.56;102716.16;6163152;23;20016;-74
2022/01/21 13:31:00;;;;;;;5.70;3.17;;;;;;;6.69;56.57;102730.44;6213583;23;20071;-75
2022/01/21 13:33:30;;;;;;;3.33;2.22;;;;;;;6.51;57.15;102696.25;6198821;23;20063;-75
2022/01/21 13:36:16;;;;;;;;;;;;;;;;;;;;;
2022/01/21 13:38:50;;;;;;;11.43;2.70;;;;;;;6.39;56.69;102692.31;6211583;23;20084;-75
2022/01/21 13:41:17;;;;;;;8.13;3.00;;;;;;;6.42;57.49;102703.63;6212485;23;20023;-74
2022/01/21 13:43:45;;;;;;;7.72;3.35;;;;;;;6.52;56.92;102729.75;6186095;23;20004;-74
2022/01/21 13:46:15;;;;;;;8.05;3.38;;;;;;;6.37;56.97;102713.41;6186530;23;20091;-74
2022/01/21 13:48:40;;;;;;;4.68;3.20;;;;;;;6.46;57.78;102729.44;6186832;23;20008;-75
2022/01/21 13:51:15;;;;;;;11.40;3.30;;;;;;;6.21;57.14;102698.06;6186831;23;20424;-76
2022/01/21 13:53:43;;;;;;;5.82;3.35;;;;;;;6.30;56.97;102726.84;6213302;23;19997;-72
2022/01/21 13:56:15;;;;;;;6.63;3.03;;;;;;;6.20;58.18;102712.66;6161113;23;20008;-73
2022/01/21 13:58:41;;;;;;;7.78;3.65;;;;;;;6.21;57.21;102726.06;6213274;23;20010;-74